sensor_id;sensor_type;location;lat;lon;timestamp;temperature;humidity
10282;DHT22;5186;59.472;18.048;2023-12-20T00:00:56;1.90;99.90
10282;DHT22;5186;59.472;18.048;2023-12-20T00:03:22;1.80;99.90
10282;DHT22;5186;59.472;18.048;2023-12-20T00:05:47;1.90;99.90
10282;DHT22;5186;59.472;18.048;2023-12-20T00:08:13;1.80;99.90
10282;DHT22;5186;59.472;18.048;2023-12-20T00:10:39;1.80;99.90
10282;DHT22;5186;59.472;18.048;2023-12-20T00:13:04;1.80;99.90
10282;DHT22;5186;59.472;18.048;2023-12-20T00:15:30;1.80;99.90
10282;DHT22;5186;59.472;18.048;2023-12-20T00:17:55;1.80;99.90
10282;DHT22;5186;59.472;18.048;2023-12-20T00:20:21;1.80;99.90
10282;DHT22;5186;59.472;18.048;2023-12-20T00:22:46;1.80;99.90
10282;DHT22;5186;59.472;18.048;2023-12-20T00:25:12;1.80;99.90
10282;DHT22;5186;59.472;18.048;2023-12-20T00:27:38;1.80;99.90
10282;DHT22;5186;59.472;18.048;2023-12-20T00:30:04;1.80;99.90
10282;DHT22;5186;59.472;18.048;2023-12-20T00:32:29;1.80;99.90
10282;DHT22;5186;59.472;18.048;2023-12-20T00:34:55;1.70;99.90
10282;DHT22;5186;59.472;18.048;2023-12-20T00:37:21;1.80;99.90
10282;DHT22;5186;59.472;18.048;2023-12-20T00:39:47;1.70;99.90
10282;DHT22;5186;59.472;18.048;2023-12-20T00:42:13;1.70;99.90
10282;DHT22;5186;59.472;18.048;2023-12-20T00:44:39;1.70;99.90
10282;DHT22;5186;59.472;18.048;2023-12-20T00:47:04;1.70;99.90
10282;DHT22;5186;59.472;18.048;2023-12-20T00:49:31;1.70;99.90
10282;DHT22;5186;59.472;18.048;2023-12-20T00:51:56;1.70;99.90
10282;DHT22;5186;59.472;18.048;2023-12-20T00:54:22;1.70;99.90
10282;DHT22;5186;59.472;18.048;2023-12-20T00:56:47;1.70;99.90
10282;DHT22;5186;59.472;18.048;2023-12-20T00:59:13;1.60;99.90
10282;DHT22;5186;59.472;18.048;2023-12-20T01:01:40;1.60;99.90
10282;DHT22;5186;59.472;18.048;2023-12-20T01:04:05;1.60;99.90
10282;DHT22;5186;59.472;18.048;2023-12-20T01:06:31;1.60;99.90
10282;DHT22;5186;59.472;18.048;2023-12-20T01:08:56;1.60;99.90
10282;DHT22;5186;59.472;18.048;2023-12-20T01:11:22;1.50;99.90
10282;DHT22;5186;59.472;18.048;2023-12-20T01:13:47;1.60;99.90
10282;DHT22;5186;59.472;18.048;2023-12-20T01:16:13;1.60;99.90
10282;DHT22;5186;59.472;18.048;2023-12-20T01:18:38;1.60;99.90
10282;DHT22;5186;59.472;18.048;2023-12-20T01:21:04;1.50;99.90
10282;DHT22;5186;59.472;18.048;2023-12-20T01:23:30;1.50;99.90
10282;DHT22;5186;59.472;18.048;2023-12-20T01:25:56;1.50;99.90
10282;DHT22;5186;59.472;18.048;2023-12-20T01:28:22;1.40;99.90
10282;DHT22;5186;59.472;18.048;2023-12-20T01:30:47;1.40;99.90
10282;DHT22;5186;59.472;18.048;2023-12-20T01:33:13;1.40;99.90
10282;DHT22;5186;59.472;18.048;2023-12-20T01:35:39;1.40;99.90
10282;DHT22;5186;59.472;18.048;2023-12-20T01:38:04;1.40;99.90
10282;DHT22;5186;59.472;18.048;2023-12-20T01:40:30;1.40;99.90
10282;DHT22;5186;59.472;18.048;2023-12-20T01:43:06;1.40;99.90
10282;DHT22;5186;59.472;18.048;2023-12-20T01:45:31;1.40;99.90
10282;DHT22;5186;59.472;18.048;2023-12-20T01:47:58;1.40;99.90
10282;DHT22;5186;59.472;18.048;2023-12-20T01:50:24;1.40;99.90
10282;DHT22;5186;59.472;18.048;2023-12-20T01:52:50;1.30;99.90
10282;DHT22;5186;59.472;18.048;2023-12-20T01:55:19;1.30;99.90
10282;DHT22;5186;59.472;18.048;2023-12-20T01:57:45;1.30;99.90
10282;DHT22;5186;59.472;18.048;2023-12-20T02:00:12;1.30;99.90
10282;DHT22;5186;59.472;18.048;2023-12-20T02:02:40;1.30;99.90
10282;DHT22;5186;59.472;18.048;2023-12-20T02:05:06;1.30;99.90
10282;DHT22;5186;59.472;18.048;2023-12-20T02:07:32;1.30;99.90
10282;DHT22;5186;59.472;18.048;2023-12-20T02:09:58;1.30;99.90
10282;DHT22;5186;59.472;18.048;2023-12-20T02:12:24;1.30;99.90
10282;DHT22;5186;59.472;18.048;2023-12-20T02:14:49;1.30;99.90
10282;DHT22;5186;59.472;18.048;2023-12-20T02:17:16;1.30;99.90
10282;DHT22;5186;59.472;18.048;2023-12-20T02:19:41;1.30;99.90
10282;DHT22;5186;59.472;18.048;2023-12-20T02:22:10;1.30;99.90
10282;DHT22;5186;59.472;18.048;2023-12-20T02:24:36;1.30;99.90
10282;DHT22;5186;59.472;18.048;2023-12-20T02:27:02;1.30;99.90
10282;DHT22;5186;59.472;18.048;2023-12-20T02:29:28;1.30;99.90
10282;DHT22;5186;59.472;18.048;2023-12-20T02:31:54;1.40;99.90
10282;DHT22;5186;59.472;18.048;2023-12-20T02:34:19;1.40;99.90
10282;DHT22;5186;59.472;18.048;2023-12-20T02:36:45;1.40;99.90
10282;DHT22;5186;59.472;18.048;2023-12-20T02:39:10;1.40;99.90
10282;DHT22;5186;59.472;18.048;2023-12-20T02:41:36;1.30;99.90
10282;DHT22;5186;59.472;18.048;2023-12-20T02:44:03;1.30;99.90
10282;DHT22;5186;59.472;18.048;2023-12-20T02:46:28;1.30;99.90
10282;DHT22;5186;59.472;18.048;2023-12-20T02:48:54;1.30;99.90
10282;DHT22;5186;59.472;18.048;2023-12-20T02:51:20;1.30;99.90
10282;DHT22;5186;59.472;18.048;2023-12-20T02:53:45;1.30;99.90
10282;DHT22;5186;59.472;18.048;2023-12-20T02:56:11;1.30;99.90
10282;DHT22;5186;59.472;18.048;2023-12-20T02:58:37;1.20;99.90
10282;DHT22;5186;59.472;18.048;2023-12-20T03:01:02;1.30;99.90
10282;DHT22;5186;59.472;18.048;2023-12-20T03:03:28;1.30;99.90
10282;DHT22;5186;59.472;18.048;2023-12-20T03:05:53;1.30;99.90
10282;DHT22;5186;59.472;18.048;2023-12-20T03:08:19;1.30;99.90
10282;DHT22;5186;59.472;18.048;2023-12-20T03:10:45;1.30;99.90
10282;DHT22;5186;59.472;18.048;2023-12-20T03:13:10;1.30;99.90
10282;DHT22;5186;59.472;18.048;2023-12-20T03:15:36;1.30;99.90
10282;DHT22;5186;59.472;18.048;2023-12-20T03:18:02;1.30;99.90
10282;DHT22;5186;59.472;18.048;2023-12-20T03:20:28;1.30;99.90
10282;DHT22;5186;59.472;18.048;2023-12-20T03:22:53;1.30;99.90
10282;DHT22;5186;59.472;18.048;2023-12-20T03:25:19;1.30;99.90
10282;DHT22;5186;59.472;18.048;2023-12-20T03:27:44;1.30;99.90
10282;DHT22;5186;59.472;18.048;2023-12-20T03:30:10;1.30;99.90
10282;DHT22;5186;59.472;18.048;2023-12-20T03:32:38;1.30;99.90
10282;DHT22;5186;59.472;18.048;2023-12-20T03:35:03;1.30;99.90
10282;DHT22;5186;59.472;18.048;2023-12-20T03:37:29;1.30;99.90
10282;DHT22;5186;59.472;18.048;2023-12-20T03:39:55;1.30;99.90
10282;DHT22;5186;59.472;18.048;2023-12-20T03:42:20;1.30;99.90
10282;DHT22;5186;59.472;18.048;2023-12-20T03:44:46;1.30;99.90
10282;DHT22;5186;59.472;18.048;2023-12-20T03:47:11;1.30;99.90
10282;DHT22;5186;59.472;18.048;2023-12-20T03:49:37;1.30;99.90
10282;DHT22;5186;59.472;18.048;2023-12-20T03:52:04;1.40;99.90
10282;DHT22;5186;59.472;18.048;2023-12-20T03:54:29;1.40;99.90
10282;DHT22;5186;59.472;18.048;2023-12-20T03:56:55;1.30;99.90
10282;DHT22;5186;59.472;18.048;2023-12-20T03:59:21;1.30;99.90
10282;DHT22;5186;59.472;18.048;2023-12-20T04:01:46;1.30;99.90
10282;DHT22;5186;59.472;18.048;2023-12-20T04:04:12;1.30;99.90
10282;DHT22;5186;59.472;18.048;2023-12-20T04:06:38;1.30;99.90
10282;DHT22;5186;59.472;18.048;2023-12-20T04:09:04;1.30;99.90
10282;DHT22;5186;59.472;18.048;2023-12-20T04:11:29;1.30;99.90
10282;DHT22;5186;59.472;18.048;2023-12-20T04:13:55;1.30;99.90
10282;DHT22;5186;59.472;18.048;2023-12-20T04:16:21;1.30;99.90
10282;DHT22;5186;59.472;18.048;2023-12-20T04:18:46;1.30;99.90
10282;DHT22;5186;59.472;18.048;2023-12-20T04:21:12;1.30;99.90
10282;DHT22;5186;59.472;18.048;2023-12-20T04:23:37;1.30;99.90
10282;DHT22;5186;59.472;18.048;2023-12-20T04:26:03;1.30;99.90
10282;DHT22;5186;59.472;18.048;2023-12-20T04:28:28;1.40;99.90
10282;DHT22;5186;59.472;18.048;2023-12-20T04:30:57;1.40;99.90
10282;DHT22;5186;59.472;18.048;2023-12-20T04:33:22;1.40;99.90
10282;DHT22;5186;59.472;18.048;2023-12-20T04:35:48;1.30;99.90
10282;DHT22;5186;59.472;18.048;2023-12-20T04:38:14;1.40;99.90
10282;DHT22;5186;59.472;18.048;2023-12-20T04:40:39;1.40;99.90
10282;DHT22;5186;59.472;18.048;2023-12-20T04:43:07;1.40;99.90
10282;DHT22;5186;59.472;18.048;2023-12-20T04:45:32;1.40;99.90
10282;DHT22;5186;59.472;18.048;2023-12-20T04:47:58;1.40;99.90
10282;DHT22;5186;59.472;18.048;2023-12-20T04:50:23;1.40;99.90
10282;DHT22;5186;59.472;18.048;2023-12-20T04:52:49;1.50;99.90
10282;DHT22;5186;59.472;18.048;2023-12-20T04:55:14;1.40;99.90
10282;DHT22;5186;59.472;18.048;2023-12-20T04:57:40;1.50;99.90
10282;DHT22;5186;59.472;18.048;2023-12-20T05:00:06;1.50;99.90
10282;DHT22;5186;59.472;18.048;2023-12-20T05:02:34;1.50;99.90
10282;DHT22;5186;59.472;18.048;2023-12-20T05:05:00;1.50;99.90
10282;DHT22;5186;59.472;18.048;2023-12-20T05:07:25;1.50;99.90
10282;DHT22;5186;59.472;18.048;2023-12-20T05:09:51;1.40;99.90
10282;DHT22;5186;59.472;18.048;2023-12-20T05:12:16;1.40;99.90
10282;DHT22;5186;59.472;18.048;2023-12-20T05:14:42;1.40;99.90
10282;DHT22;5186;59.472;18.048;2023-12-20T05:17:07;1.40;99.90
10282;DHT22;5186;59.472;18.048;2023-12-20T05:19:33;1.40;99.90
10282;DHT22;5186;59.472;18.048;2023-12-20T05:22:01;1.40;99.90
10282;DHT22;5186;59.472;18.048;2023-12-20T05:24:27;1.40;99.90
10282;DHT22;5186;59.472;18.048;2023-12-20T05:26:52;1.30;99.90
10282;DHT22;5186;59.472;18.048;2023-12-20T05:29:18;1.30;99.90
10282;DHT22;5186;59.472;18.048;2023-12-20T05:31:43;1.30;99.90
10282;DHT22;5186;59.472;18.048;2023-12-20T05:34:09;1.30;99.90
10282;DHT22;5186;59.472;18.048;2023-12-20T05:36:36;1.30;99.90
10282;DHT22;5186;59.472;18.048;2023-12-20T05:39:02;1.30;99.90
10282;DHT22;5186;59.472;18.048;2023-12-20T05:41:29;1.30;99.90
10282;DHT22;5186;59.472;18.048;2023-12-20T05:43:55;1.40;99.90
10282;DHT22;5186;59.472;18.048;2023-12-20T05:46:20;1.40;99.90
10282;DHT22;5186;59.472;18.048;2023-12-20T05:48:47;1.40;99.90
10282;DHT22;5186;59.472;18.048;2023-12-20T05:51:12;1.40;99.90
10282;DHT22;5186;59.472;18.048;2023-12-20T05:53:38;1.50;99.90
10282;DHT22;5186;59.472;18.048;2023-12-20T05:56:04;1.50;99.90
10282;DHT22;5186;59.472;18.048;2023-12-20T05:58:30;1.50;99.90
10282;DHT22;5186;59.472;18.048;2023-12-20T06:00:55;1.50;99.90
10282;DHT22;5186;59.472;18.048;2023-12-20T06:03:21;1.50;99.90
10282;DHT22;5186;59.472;18.048;2023-12-20T06:05:46;1.50;99.90
10282;DHT22;5186;59.472;18.048;2023-12-20T06:08:12;1.50;99.90
10282;DHT22;5186;59.472;18.048;2023-12-20T06:10:41;1.50;99.90
10282;DHT22;5186;59.472;18.048;2023-12-20T06:13:06;1.60;99.90
10282;DHT22;5186;59.472;18.048;2023-12-20T06:15:32;1.60;99.90
10282;DHT22;5186;59.472;18.048;2023-12-20T06:17:58;1.60;99.90
10282;DHT22;5186;59.472;18.048;2023-12-20T06:20:24;1.50;99.90
10282;DHT22;5186;59.472;18.048;2023-12-20T06:22:50;1.50;99.90
10282;DHT22;5186;59.472;18.048;2023-12-20T06:25:16;1.50;99.90
10282;DHT22;5186;59.472;18.048;2023-12-20T06:27:42;1.50;99.90
10282;DHT22;5186;59.472;18.048;2023-12-20T06:30:07;1.50;99.90
10282;DHT22;5186;59.472;18.048;2023-12-20T06:32:34;1.50;99.90
10282;DHT22;5186;59.472;18.048;2023-12-20T06:35:00;1.50;99.90
10282;DHT22;5186;59.472;18.048;2023-12-20T06:37:26;1.50;99.90
10282;DHT22;5186;59.472;18.048;2023-12-20T06:39:51;1.50;99.90
10282;DHT22;5186;59.472;18.048;2023-12-20T06:42:17;1.60;99.90
10282;DHT22;5186;59.472;18.048;2023-12-20T06:44:43;1.60;99.90
10282;DHT22;5186;59.472;18.048;2023-12-20T06:47:08;1.50;99.90
10282;DHT22;5186;59.472;18.048;2023-12-20T06:49:34;1.50;99.90
10282;DHT22;5186;59.472;18.048;2023-12-20T06:51:59;1.50;99.90
10282;DHT22;5186;59.472;18.048;2023-12-20T06:54:25;1.60;99.90
10282;DHT22;5186;59.472;18.048;2023-12-20T06:56:50;1.60;99.90
10282;DHT22;5186;59.472;18.048;2023-12-20T06:59:16;1.60;99.90
10282;DHT22;5186;59.472;18.048;2023-12-20T07:01:42;1.60;99.90
10282;DHT22;5186;59.472;18.048;2023-12-20T07:04:08;1.60;99.90
10282;DHT22;5186;59.472;18.048;2023-12-20T07:06:33;1.60;99.90
10282;DHT22;5186;59.472;18.048;2023-12-20T07:08:59;1.60;99.90
10282;DHT22;5186;59.472;18.048;2023-12-20T07:11:24;1.60;99.90
10282;DHT22;5186;59.472;18.048;2023-12-20T07:13:51;1.60;99.90
10282;DHT22;5186;59.472;18.048;2023-12-20T07:16:17;1.60;99.90
10282;DHT22;5186;59.472;18.048;2023-12-20T07:18:42;1.60;99.90
10282;DHT22;5186;59.472;18.048;2023-12-20T07:21:08;1.60;99.90
10282;DHT22;5186;59.472;18.048;2023-12-20T07:23:34;1.60;99.90
10282;DHT22;5186;59.472;18.048;2023-12-20T07:25:59;1.60;99.90
10282;DHT22;5186;59.472;18.048;2023-12-20T07:28:25;1.60;99.90
10282;DHT22;5186;59.472;18.048;2023-12-20T07:30:50;1.60;99.90
10282;DHT22;5186;59.472;18.048;2023-12-20T07:33:16;1.60;99.90
10282;DHT22;5186;59.472;18.048;2023-12-20T07:35:41;1.60;99.90
10282;DHT22;5186;59.472;18.048;2023-12-20T07:38:07;1.70;99.90
10282;DHT22;5186;59.472;18.048;2023-12-20T07:40:33;1.70;99.90
10282;DHT22;5186;59.472;18.048;2023-12-20T07:42:58;1.70;99.90
10282;DHT22;5186;59.472;18.048;2023-12-20T07:45:24;1.80;99.90
10282;DHT22;5186;59.472;18.048;2023-12-20T07:47:49;1.80;99.90
10282;DHT22;5186;59.472;18.048;2023-12-20T07:50:15;1.80;99.90
10282;DHT22;5186;59.472;18.048;2023-12-20T07:52:41;1.90;99.90
10282;DHT22;5186;59.472;18.048;2023-12-20T07:55:07;1.90;99.90
10282;DHT22;5186;59.472;18.048;2023-12-20T07:57:32;1.90;99.90
10282;DHT22;5186;59.472;18.048;2023-12-20T07:59:58;1.90;99.90
10282;DHT22;5186;59.472;18.048;2023-12-20T08:02:23;1.90;99.90
10282;DHT22;5186;59.472;18.048;2023-12-20T08:04:49;2.00;99.90
10282;DHT22;5186;59.472;18.048;2023-12-20T08:07:15;2.00;99.90
10282;DHT22;5186;59.472;18.048;2023-12-20T08:09:40;2.00;99.90
10282;DHT22;5186;59.472;18.048;2023-12-20T08:12:06;2.00;99.90
10282;DHT22;5186;59.472;18.048;2023-12-20T08:14:32;2.00;99.90
10282;DHT22;5186;59.472;18.048;2023-12-20T08:16:57;2.00;99.90
10282;DHT22;5186;59.472;18.048;2023-12-20T08:19:23;2.10;99.90
10282;DHT22;5186;59.472;18.048;2023-12-20T08:21:49;2.10;99.90
10282;DHT22;5186;59.472;18.048;2023-12-20T08:24:14;2.10;99.90
10282;DHT22;5186;59.472;18.048;2023-12-20T08:26:40;2.10;99.90
10282;DHT22;5186;59.472;18.048;2023-12-20T08:29:06;2.10;99.90
10282;DHT22;5186;59.472;18.048;2023-12-20T08:31:31;2.10;99.90
10282;DHT22;5186;59.472;18.048;2023-12-20T08:33:57;2.10;99.90
10282;DHT22;5186;59.472;18.048;2023-12-20T08:36:22;2.10;99.90
10282;DHT22;5186;59.472;18.048;2023-12-20T08:38:49;2.10;99.90
10282;DHT22;5186;59.472;18.048;2023-12-20T08:41:16;2.10;99.90
10282;DHT22;5186;59.472;18.048;2023-12-20T08:43:42;2.10;99.90
10282;DHT22;5186;59.472;18.048;2023-12-20T08:46:08;2.10;99.90
10282;DHT22;5186;59.472;18.048;2023-12-20T08:48:37;2.20;99.90
10282;DHT22;5186;59.472;18.048;2023-12-20T08:51:04;2.20;99.90
10282;DHT22;5186;59.472;18.048;2023-12-20T08:53:29;2.20;99.90
10282;DHT22;5186;59.472;18.048;2023-12-20T08:55:55;2.20;99.90
10282;DHT22;5186;59.472;18.048;2023-12-20T08:58:21;2.20;99.90
10282;DHT22;5186;59.472;18.048;2023-12-20T09:00:46;2.20;99.90
10282;DHT22;5186;59.472;18.048;2023-12-20T09:03:12;2.20;99.90
10282;DHT22;5186;59.472;18.048;2023-12-20T09:05:38;2.30;99.90
10282;DHT22;5186;59.472;18.048;2023-12-20T09:08:03;2.30;99.90
10282;DHT22;5186;59.472;18.048;2023-12-20T09:10:29;2.30;99.90
10282;DHT22;5186;59.472;18.048;2023-12-20T09:12:55;2.40;99.90
10282;DHT22;5186;59.472;18.048;2023-12-20T09:15:26;2.40;99.90
10282;DHT22;5186;59.472;18.048;2023-12-20T09:17:53;2.40;99.90
10282;DHT22;5186;59.472;18.048;2023-12-20T09:20:19;2.30;99.90
10282;DHT22;5186;59.472;18.048;2023-12-20T09:22:44;2.40;99.90
10282;DHT22;5186;59.472;18.048;2023-12-20T09:25:10;2.40;99.90
10282;DHT22;5186;59.472;18.048;2023-12-20T09:27:38;2.40;99.90
10282;DHT22;5186;59.472;18.048;2023-12-20T09:30:04;2.40;99.90
10282;DHT22;5186;59.472;18.048;2023-12-20T09:32:30;2.40;99.90
10282;DHT22;5186;59.472;18.048;2023-12-20T09:34:56;2.50;99.90
10282;DHT22;5186;59.472;18.048;2023-12-20T09:37:22;2.40;99.90
10282;DHT22;5186;59.472;18.048;2023-12-20T09:39:47;2.50;99.90
10282;DHT22;5186;59.472;18.048;2023-12-20T09:42:17;2.50;99.90
10282;DHT22;5186;59.472;18.048;2023-12-20T09:44:47;2.50;99.90
10282;DHT22;5186;59.472;18.048;2023-12-20T09:47:13;2.50;99.90
10282;DHT22;5186;59.472;18.048;2023-12-20T09:49:41;2.50;99.90
10282;DHT22;5186;59.472;18.048;2023-12-20T09:52:09;2.50;99.90
10282;DHT22;5186;59.472;18.048;2023-12-20T09:54:35;2.50;99.90
10282;DHT22;5186;59.472;18.048;2023-12-20T09:57:01;2.50;99.90
10282;DHT22;5186;59.472;18.048;2023-12-20T09:59:27;2.50;99.90
10282;DHT22;5186;59.472;18.048;2023-12-20T10:01:54;2.50;99.90
10282;DHT22;5186;59.472;18.048;2023-12-20T10:04:21;2.60;99.90
10282;DHT22;5186;59.472;18.048;2023-12-20T10:06:46;2.50;99.90
10282;DHT22;5186;59.472;18.048;2023-12-20T10:09:12;2.60;99.90
10282;DHT22;5186;59.472;18.048;2023-12-20T10:11:39;2.60;99.90
10282;DHT22;5186;59.472;18.048;2023-12-20T10:14:05;2.60;99.90
10282;DHT22;5186;59.472;18.048;2023-12-20T10:16:31;2.60;99.90
10282;DHT22;5186;59.472;18.048;2023-12-20T10:18:58;2.60;99.90
10282;DHT22;5186;59.472;18.048;2023-12-20T10:21:24;2.60;99.90
10282;DHT22;5186;59.472;18.048;2023-12-20T10:23:52;2.60;99.90
10282;DHT22;5186;59.472;18.048;2023-12-20T10:26:26;2.60;99.90
10282;DHT22;5186;59.472;18.048;2023-12-20T10:28:54;2.70;99.90
10282;DHT22;5186;59.472;18.048;2023-12-20T10:31:30;2.60;99.90
10282;DHT22;5186;59.472;18.048;2023-12-20T10:33:57;2.70;99.90
10282;DHT22;5186;59.472;18.048;2023-12-20T10:36:33;2.60;99.90
10282;DHT22;5186;59.472;18.048;2023-12-20T10:39:00;2.70;99.90
10282;DHT22;5186;59.472;18.048;2023-12-20T10:41:31;2.70;99.90
10282;DHT22;5186;59.472;18.048;2023-12-20T10:43:59;2.70;99.90
10282;DHT22;5186;59.472;18.048;2023-12-20T10:46:29;2.70;99.90
10282;DHT22;5186;59.472;18.048;2023-12-20T10:48:56;2.70;99.90
10282;DHT22;5186;59.472;18.048;2023-12-20T10:51:23;2.70;99.90
10282;DHT22;5186;59.472;18.048;2023-12-20T10:53:50;2.70;99.90
10282;DHT22;5186;59.472;18.048;2023-12-20T10:56:17;2.70;99.90
10282;DHT22;5186;59.472;18.048;2023-12-20T10:58:44;2.70;99.90
10282;DHT22;5186;59.472;18.048;2023-12-20T11:01:12;2.70;99.90
10282;DHT22;5186;59.472;18.048;2023-12-20T11:03:38;2.70;99.90
10282;DHT22;5186;59.472;18.048;2023-12-20T11:09:14;2.80;99.90
10282;DHT22;5186;59.472;18.048;2023-12-20T11:12:13;2.80;99.90
10282;DHT22;5186;59.472;18.048;2023-12-20T11:14:47;2.80;99.90
10282;DHT22;5186;59.472;18.048;2023-12-20T11:17:13;2.80;99.90
10282;DHT22;5186;59.472;18.048;2023-12-20T11:22:30;2.80;99.90
10282;DHT22;5186;59.472;18.048;2023-12-20T11:27:32;2.90;99.90
10282;DHT22;5186;59.472;18.048;2023-12-20T11:29:58;2.80;99.90
10282;DHT22;5186;59.472;18.048;2023-12-20T11:34:59;2.90;99.90
10282;DHT22;5186;59.472;18.048;2023-12-20T11:37:35;2.90;99.90
10282;DHT22;5186;59.472;18.048;2023-12-20T11:40:05;2.90;99.90
10282;DHT22;5186;59.472;18.048;2023-12-20T11:42:33;2.90;99.90
10282;DHT22;5186;59.472;18.048;2023-12-20T11:45:02;2.90;99.90
10282;DHT22;5186;59.472;18.048;2023-12-20T11:47:29;2.90;99.90
10282;DHT22;5186;59.472;18.048;2023-12-20T11:49:55;2.90;99.90
10282;DHT22;5186;59.472;18.048;2023-12-20T11:52:21;2.90;99.90
10282;DHT22;5186;59.472;18.048;2023-12-20T11:54:47;2.90;99.90
10282;DHT22;5186;59.472;18.048;2023-12-20T11:57:13;2.90;99.90
10282;DHT22;5186;59.472;18.048;2023-12-20T11:59:39;2.90;99.90
10282;DHT22;5186;59.472;18.048;2023-12-20T12:02:05;2.90;99.90
10282;DHT22;5186;59.472;18.048;2023-12-20T12:04:31;2.90;99.90
10282;DHT22;5186;59.472;18.048;2023-12-20T12:06:56;2.90;99.90
10282;DHT22;5186;59.472;18.048;2023-12-20T12:09:22;2.90;99.90
10282;DHT22;5186;59.472;18.048;2023-12-20T12:11:48;2.90;99.90
10282;DHT22;5186;59.472;18.048;2023-12-20T12:14:13;2.90;99.90
10282;DHT22;5186;59.472;18.048;2023-12-20T12:16:41;2.90;99.90
10282;DHT22;5186;59.472;18.048;2023-12-20T12:19:14;2.90;99.90
10282;DHT22;5186;59.472;18.048;2023-12-20T12:21:45;3.00;99.90
10282;DHT22;5186;59.472;18.048;2023-12-20T12:24:10;2.90;99.90
10282;DHT22;5186;59.472;18.048;2023-12-20T12:26:36;2.90;99.90
10282;DHT22;5186;59.472;18.048;2023-12-20T12:29:01;2.90;99.90
10282;DHT22;5186;59.472;18.048;2023-12-20T12:31:27;2.90;99.90
10282;DHT22;5186;59.472;18.048;2023-12-20T12:33:53;2.90;99.90
10282;DHT22;5186;59.472;18.048;2023-12-20T12:36:19;3.00;99.90
10282;DHT22;5186;59.472;18.048;2023-12-20T12:38:44;2.90;99.90
10282;DHT22;5186;59.472;18.048;2023-12-20T12:41:13;2.90;99.90
10282;DHT22;5186;59.472;18.048;2023-12-20T12:43:38;3.00;99.90
10282;DHT22;5186;59.472;18.048;2023-12-20T12:46:04;2.90;99.90
10282;DHT22;5186;59.472;18.048;2023-12-20T12:48:29;3.00;99.90
10282;DHT22;5186;59.472;18.048;2023-12-20T12:50:55;2.90;99.90
10282;DHT22;5186;59.472;18.048;2023-12-20T12:53:24;2.90;99.90
10282;DHT22;5186;59.472;18.048;2023-12-20T12:55:51;2.90;99.90
10282;DHT22;5186;59.472;18.048;2023-12-20T12:58:16;2.90;99.90
10282;DHT22;5186;59.472;18.048;2023-12-20T13:00:42;2.90;99.90
10282;DHT22;5186;59.472;18.048;2023-12-20T13:03:07;2.90;99.90
10282;DHT22;5186;59.472;18.048;2023-12-20T13:05:33;2.90;99.90
10282;DHT22;5186;59.472;18.048;2023-12-20T13:07:59;2.90;99.90
10282;DHT22;5186;59.472;18.048;2023-12-20T13:10:25;2.90;99.90
10282;DHT22;5186;59.472;18.048;2023-12-20T13:12:50;2.90;99.90
10282;DHT22;5186;59.472;18.048;2023-12-20T13:15:16;2.90;99.90
10282;DHT22;5186;59.472;18.048;2023-12-20T13:17:42;2.90;99.90
10282;DHT22;5186;59.472;18.048;2023-12-20T13:20:07;2.90;99.90
10282;DHT22;5186;59.472;18.048;2023-12-20T13:22:33;2.90;99.90
10282;DHT22;5186;59.472;18.048;2023-12-20T13:24:59;2.90;99.90
10282;DHT22;5186;59.472;18.048;2023-12-20T13:27:24;2.90;99.90
10282;DHT22;5186;59.472;18.048;2023-12-20T13:29:50;2.90;99.90
10282;DHT22;5186;59.472;18.048;2023-12-20T13:32:15;2.90;99.90
10282;DHT22;5186;59.472;18.048;2023-12-20T13:34:41;3.00;99.90
10282;DHT22;5186;59.472;18.048;2023-12-20T13:37:06;2.90;99.90
10282;DHT22;5186;59.472;18.048;2023-12-20T13:39:32;2.90;99.90
10282;DHT22;5186;59.472;18.048;2023-12-20T13:41:58;3.00;99.90
10282;DHT22;5186;59.472;18.048;2023-12-20T13:44:23;3.00;99.90
10282;DHT22;5186;59.472;18.048;2023-12-20T13:46:49;3.00;99.90
10282;DHT22;5186;59.472;18.048;2023-12-20T13:49:15;2.90;99.90
10282;DHT22;5186;59.472;18.048;2023-12-20T13:51:41;2.90;99.90
10282;DHT22;5186;59.472;18.048;2023-12-20T13:54:06;3.00;99.90
10282;DHT22;5186;59.472;18.048;2023-12-20T13:56:32;3.00;99.90
10282;DHT22;5186;59.472;18.048;2023-12-20T13:58:58;3.00;99.90
10282;DHT22;5186;59.472;18.048;2023-12-20T14:01:25;3.00;99.90
10282;DHT22;5186;59.472;18.048;2023-12-20T14:03:51;3.00;99.90
10282;DHT22;5186;59.472;18.048;2023-12-20T14:06:17;3.00;99.90
10282;DHT22;5186;59.472;18.048;2023-12-20T14:08:43;3.00;99.90
10282;DHT22;5186;59.472;18.048;2023-12-20T14:11:09;3.00;99.90
10282;DHT22;5186;59.472;18.048;2023-12-20T14:13:34;3.00;99.90
10282;DHT22;5186;59.472;18.048;2023-12-20T14:16:00;3.00;99.90
10282;DHT22;5186;59.472;18.048;2023-12-20T14:18:27;3.00;99.90
10282;DHT22;5186;59.472;18.048;2023-12-20T14:20:53;3.00;99.90
10282;DHT22;5186;59.472;18.048;2023-12-20T14:23:19;3.00;99.90
10282;DHT22;5186;59.472;18.048;2023-12-20T14:25:45;3.00;99.90
10282;DHT22;5186;59.472;18.048;2023-12-20T14:28:10;3.00;99.90
10282;DHT22;5186;59.472;18.048;2023-12-20T14:30:39;3.00;99.90
10282;DHT22;5186;59.472;18.048;2023-12-20T14:33:05;3.00;99.90
10282;DHT22;5186;59.472;18.048;2023-12-20T14:35:30;3.00;99.90
10282;DHT22;5186;59.472;18.048;2023-12-20T14:37:56;3.00;99.90
10282;DHT22;5186;59.472;18.048;2023-12-20T14:40:22;3.00;99.90
10282;DHT22;5186;59.472;18.048;2023-12-20T14:42:48;3.00;99.90
10282;DHT22;5186;59.472;18.048;2023-12-20T14:45:14;3.00;99.90
10282;DHT22;5186;59.472;18.048;2023-12-20T14:47:41;3.00;99.90
10282;DHT22;5186;59.472;18.048;2023-12-20T14:50:07;3.00;99.90
10282;DHT22;5186;59.472;18.048;2023-12-20T14:52:33;3.00;99.90
10282;DHT22;5186;59.472;18.048;2023-12-20T14:55:00;3.00;99.90
10282;DHT22;5186;59.472;18.048;2023-12-20T14:57:26;3.00;99.90
10282;DHT22;5186;59.472;18.048;2023-12-20T14:59:52;3.00;99.90
10282;DHT22;5186;59.472;18.048;2023-12-20T15:02:18;3.10;99.90
10282;DHT22;5186;59.472;18.048;2023-12-20T15:04:44;3.00;99.90
10282;DHT22;5186;59.472;18.048;2023-12-20T15:07:09;3.00;99.90
10282;DHT22;5186;59.472;18.048;2023-12-20T15:09:35;3.00;99.90
10282;DHT22;5186;59.472;18.048;2023-12-20T15:12:00;3.00;99.90
10282;DHT22;5186;59.472;18.048;2023-12-20T15:14:26;3.00;99.90
10282;DHT22;5186;59.472;18.048;2023-12-20T15:16:53;3.00;99.90
10282;DHT22;5186;59.472;18.048;2023-12-20T15:19:20;3.00;99.90
10282;DHT22;5186;59.472;18.048;2023-12-20T15:21:46;3.00;99.90
10282;DHT22;5186;59.472;18.048;2023-12-20T15:24:12;3.00;99.90
10282;DHT22;5186;59.472;18.048;2023-12-20T15:26:42;3.00;99.90
10282;DHT22;5186;59.472;18.048;2023-12-20T15:29:08;3.00;99.90
10282;DHT22;5186;59.472;18.048;2023-12-20T15:31:45;3.10;99.90
10282;DHT22;5186;59.472;18.048;2023-12-20T15:34:11;3.00;99.90
10282;DHT22;5186;59.472;18.048;2023-12-20T15:36:37;3.00;99.90
10282;DHT22;5186;59.472;18.048;2023-12-20T15:39:04;3.00;99.90
10282;DHT22;5186;59.472;18.048;2023-12-20T15:41:30;3.00;99.90
10282;DHT22;5186;59.472;18.048;2023-12-20T15:43:56;3.10;99.90
10282;DHT22;5186;59.472;18.048;2023-12-20T15:46:22;3.00;99.90
10282;DHT22;5186;59.472;18.048;2023-12-20T15:48:47;3.00;99.90